Time;durP1;ratioP1;P1;durP2;ratioP2;P2;SDS_P1;SDS_P2;PMS_P1;PMS_P2;Temp;Humidity;BMP_temperature;BMP_pressure;BME280_temperature;BME280_humidity;BME280_pressure;Samples;Min_cycle;Max_cycle;Signal;HPM_P1;HPM_P2
2022/08/28 00:00:40;;;;;;;;;;;;;;;15.81;60.98;97762.59;6196914;28;19930;-62
2022/08/28 00:03:41;;;;;;;;;;;;;;;15.81;60.71;97767.91;6196917;28;20239;-62
2022/08/28 00:06:48;;;;;;;;;;;;;;;15.71;60.73;97760.59;6196953;28;19926;-62
2022/08/28 00:09:52;;;;;;;;;;;;;;;15.71;60.89;97763.25;6197762;28;19925;-61
2022/08/28 00:12:56;;;;;;;;;;;;;;;15.80;61.30;97766.22;6197342;28;20237;-63
2022/08/28 00:15:59;;;;;;;;;;;;;;;15.86;61.14;97774.56;6204656;28;20391;-61
2022/08/28 00:19:03;;;;;;;;;;;;;;;15.82;61.04;97774.88;6221264;28;20465;-61
2022/08/28 00:22:06;;;;;;;;;;;;;;;15.77;61.26;97771.72;6220937;28;19925;-61
2022/08/28 00:25:10;;;;;;;;;;;;;;;15.71;61.16;97768.56;6221422;28;19925;-62
2022/08/28 00:28:16;;;;;;;;;;;;;;;15.64;61.09;97769.91;6220918;28;19931;-62
2022/08/28 00:31:20;;;;;;;;;;;;;;;15.58;61.03;97774.81;6197370;28;20450;-63
2022/08/28 00:34:24;;;;;;;;;;;;;;;15.52;61.19;97778.75;6228766;28;19967;-63
2022/08/28 00:37:25;;;;;;;;;;;;;;;15.51;61.31;97777.03;6244676;28;20015;-62
2022/08/28 00:40:30;;;;;;;;;;;;;;;15.52;61.39;97778.75;6245446;28;20043;-63
2022/08/28 00:43:34;;;;;;;;;;;;;;;15.48;61.36;97777.25;6245291;28;20294;-61
2022/08/28 00:46:37;;;;;;;;;;;;;;;15.48;61.43;97775.47;6223857;28;20022;-62
2022/08/28 00:49:44;;;;;;;;;;;;;;;15.53;61.61;97780.44;6220788;28;19926;-62
2022/08/28 00:52:48;;;;;;;;;;;;;;;15.48;61.52;97783.44;6216370;28;19925;-61
2022/08/28 00:55:54;;;;;;;;;;;;;;;15.43;61.47;97779.41;6216934;28;19925;-62
2022/08/28 00:59:02;;;;;;;;;;;;;;;15.41;61.70;97779.50;6220271;28;19932;-62
2022/08/28 01:02:07;;;;;;;;;;;;;;;15.41;61.58;97781.31;6209085;28;20059;-62
2022/08/28 01:05:09;;;;;;;;;;;;;;;15.35;61.43;97776.44;6216295;28;19929;-62
2022/08/28 01:08:13;;;;;;;;;;;;;;;15.33;61.80;97789.78;6221104;28;19925;-62
2022/08/28 01:11:15;;;;;;;;;;;;;;;15.34;61.77;97786.16;6207435;28;19926;-62
2022/08/28 01:14:18;;;;;;;;;;;;;;;15.33;61.74;97794.25;6215057;28;20458;-62
2022/08/28 01:17:22;;;;;;;;;;;;;;;15.25;62.86;97787.66;6215864;28;20027;-62
2022/08/28 01:20:27;;;;;;;;;;;;;;;15.29;63.42;97790.13;6217962;28;19925;-61
2022/08/28 01:23:44;;;;;;;;;;;;;;;15.36;62.27;97786.06;6219044;28;19997;-62
2022/08/28 01:26:46;;;;;;;;;;;;;;;15.39;61.80;97793.81;6222997;28;19948;-62
2022/08/28 01:29:47;;;;;;;;;;;;;;;15.41;60.96;97782.13;6211822;28;19933;-62
2022/08/28 01:32:50;;;;;;;;;;;;;;;15.45;60.81;97788.06;6217099;28;19933;-62
2022/08/28 01:35:56;;;;;;;;;;;;;;;15.55;60.86;97798.91;6221708;28;19925;-61
2022/08/28 01:39:11;;;;;;;;;;;;;;;15.58;60.87;97799.53;6213630;28;19925;-61
2022/08/28 01:42:12;;;;;;;;;;;;;;;15.52;60.78;97799.97;6211638;28;19926;-62
2022/08/28 01:45:15;;;;;;;;;;;;;;;15.48;60.85;97806.41;6215857;28;20005;-61
2022/08/28 01:48:20;;;;;;;;;;;;;;;15.46;60.95;97805.69;6208178;28;19925;-61
2022/08/28 01:51:24;;;;;;;;;;;;;;;15.53;60.72;97800.81;6219339;28;20307;-61
2022/08/28 01:54:25;;;;;;;;;;;;;;;15.54;60.63;97797.19;6219259;28;19932;-61
2022/08/28 01:57:26;;;;;;;;;;;;;;;15.52;60.91;97807.91;6234233;28;19979;-61
2022/08/28 02:00:28;;;;;;;;;;;;;;;15.57;61.45;97808.44;6218446;28;20311;-62
2022/08/28 02:03:32;;;;;;;;;;;;;;;15.69;61.00;97806.75;6218558;28;19933;-62
2022/08/28 02:06:36;;;;;;;;;;;;;;;15.82;60.68;97801.41;6219953;28;19925;-62
2022/08/28 02:09:37;;;;;;;;;;;;;;;15.94;60.79;97803.22;6212334;28;19925;-63
2022/08/28 02:12:42;;;;;;;;;;;;;;;16.05;60.38;97808.59;6142544;28;2078972;-60
2022/08/28 02:15:44;;;;;;;;;;;;;;;16.21;58.94;97810.13;6218124;28;19992;-62
2022/08/28 02:18:46;;;;;;;;;;;;;;;16.26;59.06;97800.03;6222524;28;20039;-61
2022/08/28 02:21:49;;;;;;;;;;;;;;;16.26;59.11;97805.34;6221540;28;19938;-62
2022/08/28 02:24:50;;;;;;;;;;;;;;;16.30;59.42;97810.31;6213272;28;19963;-62
2022/08/28 02:27:52;;;;;;;;;;;;;;;16.34;59.32;97808.28;6206253;28;19926;-62
2022/08/28 02:30:55;;;;;;;;;;;;;;;16.41;59.34;97801.56;6213472;28;19961;-62
2022/08/28 02:33:56;;;;;;;;;;;;;;;16.53;59.65;97808.63;6219908;28;19926;-62
2022/08/28 02:36:57;;;;;;;;;;;;;;;16.70;59.41;97814.47;6220336;28;20310;-62
2022/08/28 02:40:01;;;;;;;;;;;;;;;16.84;59.39;97814.31;6219488;28;19925;-62
2022/08/28 02:43:03;;;;;;;;;;;;;;;16.98;59.39;97814.13;6219801;28;20015;-62
2022/08/28 02:46:05;;;;;;;;;;;;;;;17.28;58.39;97820.75;6209439;28;19995;-61
2022/08/28 02:49:06;;;;;;;;;;;;;;;17.34;58.06;97820.25;6222052;28;19960;-61
2022/08/28 02:52:12;;;;;;;;;;;;;;;17.36;58.05;97821.00;6211568;28;20022;-61
2022/08/28 02:55:14;;;;;;;;;;;;;;;17.45;58.26;97828.25;6214432;28;19925;-62
2022/08/28 02:58:15;;;;;;;;;;;;;;;17.56;57.96;97824.78;6221105;28;19925;-61
2022/08/28 03:01:16;;;;;;;;;;;;;;;17.66;57.90;97831.06;6217305;28;19932;-61
2022/08/28 03:04:17;;;;;;;;;;;;;;;17.79;57.92;97830.97;6213440;28;19925;-63
2022/08/28 03:07:21;;;;;;;;;;;;;;;17.92;57.96;97837.03;6217621;28;19925;-61
2022/08/28 03:10:27;;;;;;;;;;;;;;;18.10;57.54;97842.69;6219818;28;20402;-61
2022/08/28 03:13:31;;;;;;;;;;;;;;;18.25;57.56;97840.59;6221022;28;19968;-62
2022/08/28 03:16:33;;;;;;;;;;;;;;;18.41;57.39;97840.22;6218530;28;19925;-62
2022/08/28 03:19:34;;;;;;;;;;;;;;;18.60;57.38;97836.91;6214038;28;19925;-63
2022/08/28 03:26:03;;;;;;;;;;;;;;;18.93;57.13;97837.78;6212668;28;20056;-62
2022/08/28 03:29:04;;;;;;;;;;;;;;;19.08;57.48;97841.84;6219412;28;20021;-63
2022/08/28 03:32:05;;;;;;;;;;;;;;;19.29;56.79;97849.84;6219959;28;19944;-62
2022/08/28 03:35:07;;;;;;;;;;;;;;;19.41;56.56;97839.94;6214021;28;19925;-62
2022/08/28 03:38:11;;;;;;;;;;;;;;;19.59;56.04;97846.38;6219045;28;19926;-62
2022/08/28 03:41:15;;;;;;;;;;;;;;;19.79;55.49;97851.81;6216935;28;19925;-61
2022/08/28 03:44:18;;;;;;;;;;;;;;;19.93;55.42;97847.00;6213711;28;19975;-62
2022/08/28 03:47:19;;;;;;;;;;;;;;;20.28;54.10;97842.19;6213986;28;19925;-62
2022/08/28 03:50:20;;;;;;;;;;;;;;;20.46;53.47;97845.88;6217621;28;19926;-62
2022/08/28 03:53:26;;;;;;;;;;;;;;;20.73;52.28;97842.59;6209764;28;19981;-61
2022/08/28 03:56:31;;;;;;;;;;;;;;;21.06;51.19;97849.34;6216148;28;19964;-63
2022/08/28 03:59:32;;;;;;;;;;;;;;;21.31;50.23;97841.69;6215739;28;20439;-61
2022/08/28 04:02:33;;;;;;;;;;;;;;;21.50;49.88;97844.38;6211920;28;19925;-61
2022/08/28 04:05:35;;;;;;;;;;;;;;;21.60;49.59;97843.50;6219150;28;20419;-61
2022/08/28 04:08:36;;;;;;;;;;;;;;;21.67;49.45;97842.78;6218057;28;19929;-62
2022/08/28 04:11:42;;;;;;;;;;;;;;;21.70;49.30;97849.69;6219833;28;19929;-64
2022/08/28 04:14:44;;;;;;;;;;;;;;;21.73;49.20;97846.72;6218944;28;19925;-62
2022/08/28 04:17:47;;;;;;;;;;;;;;;21.75;49.12;97844.75;6217175;28;19925;-63
2022/08/28 04:21:01;;;;;;;;;;;;;;;21.79;49.04;97846.13;6219606;28;19926;-61
2022/08/28 04:24:03;;;;;;;;;;;;;;;21.92;48.64;97849.34;6217743;28;20805;-61
2022/08/28 04:27:04;;;;;;;;;;;;;;;22.04;48.30;97850.00;6215455;28;19925;-62
2022/08/28 04:30:09;;;;;;;;;;;;;;;22.24;47.68;97842.72;6218486;28;19953;-61
2022/08/28 04:33:13;;;;;;;;;;;;;;;22.36;47.02;97846.91;6215539;28;19926;-62
2022/08/28 04:36:17;;;;;;;;;;;;;;;22.49;46.98;97843.03;6211818;28;19925;-62
2022/08/28 04:39:21;;;;;;;;;;;;;;;22.63;46.98;97848.72;6211660;28;19925;-62
2022/08/28 04:42:22;;;;;;;;;;;;;;;22.80;46.48;97836.31;6212400;28;19937;-61
2022/08/28 04:45:23;;;;;;;;;;;;;;;22.95;45.92;97839.31;6210856;28;19929;-62
2022/08/28 04:48:24;;;;;;;;;;;;;;;23.16;45.48;97848.91;6219243;28;19932;-62
2022/08/28 04:51:28;;;;;;;;;;;;;;;23.33;44.51;97837.31;6216709;28;19925;-61
2022/08/28 04:54:31;;;;;;;;;;;;;;;23.52;44.02;97837.13;6217864;28;19929;-62
2022/08/28 04:57:32;;;;;;;;;;;;;;;23.57;43.72;97833.94;6215323;28;19929;-61
2022/08/28 05:00:33;;;;;;;;;;;;;;;23.73;43.48;97836.75;6211918;28;20045;-61
2022/08/28 05:03:34;;;;;;;;;;;;;;;23.87;43.30;97829.13;6206790;28;20303;-62
2022/08/28 05:06:44;;;;;;;;;;;;;;;24.02;42.90;97838.25;6209500;28;19925;-62
2022/08/28 05:09:47;;;;;;;;;;;;;;;24.22;42.18;97832.63;6216170;28;19933;-62
2022/08/28 05:12:50;;;;;;;;;;;;;;;24.37;42.03;97836.38;6216670;28;20020;-62
2022/08/28 05:15:52;;;;;;;;;;;;;;;24.61;40.98;97836.47;6205689;28;19993;-61
2022/08/28 05:18:58;;;;;;;;;;;;;;;25.28;40.27;97832.91;6211472;28;19926;-62
2022/08/28 05:22:03;;;;;;;;;;;;;;;28.40;36.12;97840.75;6218470;28;19926;-63
2022/08/28 05:25:04;;;;;;;;;;;;;;;32.61;30.37;97852.31;6226649;28;20398;-61
2022/08/28 05:28:06;;;;;;;;;;;;;;;36.02;26.29;97855.78;6214293;28;21166;-62
2022/08/28 05:31:10;;;;;;;;;;;;;;;38.71;23.35;97847.16;6213026;28;20072;-63
2022/08/28 05:34:14;;;;;;;;;;;;;;;40.75;20.92;97855.44;6218574;28;20652;-63
2022/08/28 05:37:20;;;;;;;;;;;;;;;41.89;18.73;97853.41;6210996;28;20313;-64
2022/08/28 05:40:24;;;;;;;;;;;;;;;43.04;17.78;97850.84;6216035;28;19929;-64
2022/08/28 05:43:26;;;;;;;;;;;;;;;44.17;16.68;97858.31;6215666;28;19931;-63
2022/08/28 05:46:30;;;;;;;;;;;;;;;45.34;15.65;97856.81;6209570;28;19929;-63
2022/08/28 05:49:31;;;;;;;;;;;;;;;46.33;15.38;97854.88;6214499;28;20056;-64
2022/08/28 05:52:35;;;;;;;;;;;;;;;46.90;15.65;97846.19;6214628;28;19948;-63
2022/08/28 05:55:38;;;;;;;;;;;;;;;47.42;14.39;97847.53;6208267;28;20321;-63
2022/08/28 05:58:42;;;;;;;;;;;;;;;47.93;13.84;97845.44;6210553;28;19922;-63
2022/08/28 06:01:48;;;;;;;;;;;;;;;48.49;13.36;97852.22;6202682;28;19929;-64
2022/08/28 06:04:54;;;;;;;;;;;;;;;49.27;12.43;97848.81;6208524;28;19930;-62
2022/08/28 06:07:57;;;;;;;;;;;;;;;49.80;11.88;97844.00;6213626;28;19921;-63
2022/08/28 06:11:04;;;;;;;;;;;;;;;50.29;12.04;97839.75;6222176;28;19925;-64
2022/08/28 06:14:10;;;;;;;;;;;;;;;50.89;11.23;97834.16;6214425;28;19926;-64
2022/08/28 06:17:14;;;;;;;;;;;;;;;51.48;10.72;97834.06;6216712;28;20358;-62
2022/08/28 06:20:18;;;;;;;;;;;;;;;51.58;9.99;97833.59;6216941;28;20369;-63
2022/08/28 06:23:21;;;;;;;;;;;;;;;51.82;9.60;97829.28;6219544;28;19925;-63
2022/08/28 06:26:25;;;;;;;;;;;;;;;52.15;9.69;97828.38;6215641;28;19971;-63
2022/08/28 06:29:29;;;;;;;;;;;;;;;52.47;9.42;97830.31;6215760;28;19925;-64
2022/08/28 06:32:35;;;;;;;;;;;;;;;52.86;9.66;97825.13;6218964;28;20007;-63
2022/08/28 06:35:40;;;;;;;;;;;;;;;53.22;9.23;97817.78;6213443;28;20390;-63
2022/08/28 06:38:45;;;;;;;;;;;;;;;53.74;9.16;97816.88;6218901;28;19931;-63
2022/08/28 06:41:49;;;;;;;;;;;;;;;54.24;8.34;97811.72;6210089;28;19926;-64
2022/08/28 06:44:50;;;;;;;;;;;;;;;54.25;8.66;97805.75;6216818;28;19925;-63
2022/08/28 06:47:54;;;;;;;;;;;;;;;53.72;8.50;97805.16;6216293;28;20024;-62
2022/08/28 06:50:56;;;;;;;;;;;;;;;53.99;9.01;97802.66;6210259;28;20470;-63
2022/08/28 06:54:01;;;;;;;;;;;;;;;54.69;8.16;97802.78;6211540;28;19929;-63
2022/08/28 06:57:03;;;;;;;;;;;;;;;55.41;7.49;97795.91;6220890;28;20391;-62
2022/08/28 07:00:08;;;;;;;;;;;;;;;55.25;8.06;97792.31;6205923;28;19968;-63
2022/08/28 07:03:12;;;;;;;;;;;;;;;55.54;7.86;97791.69;6219397;28;19925;-63
2022/08/28 07:06:13;;;;;;;;;;;;;;;56.04;7.28;97784.16;6211392;28;19932;-63
2022/08/28 07:09:17;;;;;;;;;;;;;;;56.58;7.08;97782.22;6220651;28;19988;-62
2022/08/28 07:12:20;;;;;;;;;;;;;;;57.13;6.91;97784.56;6208537;28;19929;-63
2022/08/28 07:15:26;;;;;;;;;;;;;;;57.08;6.54;97776.44;6210777;28;19971;-64
2022/08/28 07:18:31;;;;;;;;;;;;;;;56.90;6.59;97777.03;6214551;28;19921;-63
2022/08/28 07:21:35;;;;;;;;;;;;;;;57.13;6.84;97767.59;6220616;28;19925;-64
2022/08/28 07:24:36;;;;;;;;;;;;;;;57.20;6.44;97773.38;6214718;28;19925;-62
2022/08/28 07:27:39;;;;;;;;;;;;;;;57.07;6.78;97760.66;6220519;28;19922;-62
2022/08/28 07:30:43;;;;;;;;;;;;;;;57.10;6.52;97768.38;6212099;28;20020;-63
2022/08/28 07:33:44;;;;;;;;;;;;;;;57.09;6.04;97761.09;6212348;28;20450;-64
2022/08/28 07:36:51;;;;;;;;;;;;;;;56.59;6.42;97760.41;6217085;28;19925;-64
2022/08/28 07:39:54;;;;;;;;;;;;;;;56.62;6.51;97754.00;6219116;28;19948;-62
2022/08/28 07:46:18;;;;;;;;;;;;;;;57.00;5.60;97746.44;6215932;28;19969;-63
2022/08/28 07:49:23;;;;;;;;;;;;;;;57.25;5.94;97747.56;6214682;28;19926;-63
2022/08/28 07:52:24;;;;;;;;;;;;;;;57.38;5.37;97744.47;6209000;28;20411;-63
2022/08/28 07:55:30;;;;;;;;;;;;;;;57.41;5.53;97746.50;6210814;28;19922;-63
2022/08/28 07:58:32;;;;;;;;;;;;;;;57.62;5.63;97741.09;6213340;28;19957;-63
2022/08/28 08:01:39;;;;;;;;;;;;;;;57.47;5.37;97742.16;6217248;28;20006;-64
2022/08/28 08:04:43;;;;;;;;;;;;;;;56.64;6.09;97729.00;6219293;28;20012;-62
2022/08/28 08:07:46;;;;;;;;;;;;;;;55.96;6.27;97725.94;6214238;28;19929;-64
2022/08/28 08:11:04;;;;;;;;;;;;;;;55.42;6.50;97710.03;6213274;28;19929;-62
2022/08/28 08:14:08;;;;;;;;;;;;;;;55.62;6.32;97712.84;6210385;28;20020;-63
2022/08/28 08:17:11;;;;;;;;;;;;;;;55.90;6.25;97718.16;6220261;28;19926;-63
2022/08/28 08:20:18;;;;;;;;;;;;;;;56.01;5.92;97708.69;6215649;28;20020;-63
2022/08/28 08:23:21;;;;;;;;;;;;;;;55.99;5.12;97708.22;6214290;28;20457;-65
2022/08/28 08:26:26;;;;;;;;;;;;;;;55.86;5.81;97706.81;6208360;28;20407;-64
2022/08/28 08:29:30;;;;;;;;;;;;;;;56.27;5.22;97706.25;6208347;28;19926;-62
2022/08/28 08:32:31;;;;;;;;;;;;;;;56.55;5.44;97703.84;6214408;28;19929;-62
2022/08/28 08:35:35;;;;;;;;;;;;;;;57.08;4.99;97702.91;6216520;28;19968;-63
2022/08/28 08:38:36;;;;;;;;;;;;;;;57.36;4.92;97708.03;6218164;28;19925;-63
2022/08/28 08:41:47;;;;;;;;;;;;;;;57.20;4.94;97699.81;6218558;28;20113;-62
2022/08/28 08:44:49;;;;;;;;;;;;;;;57.35;4.79;97689.44;6219624;28;20384;-62
2022/08/28 08:47:51;;;;;;;;;;;;;;;57.37;5.20;97689.06;6219150;28;20409;-62
2022/08/28 08:50:57;;;;;;;;;;;;;;;57.20;4.92;97684.88;6219500;28;19925;-62
2022/08/28 08:54:08;;;;;;;;;;;;;;;57.13;4.74;97688.38;6218605;28;19925;-63
2022/08/28 08:57:12;;;;;;;;;;;;;;;57.12;5.05;97676.25;6219543;28;19926;-62
2022/08/28 09:00:14;;;;;;;;;;;;;;;56.73;4.78;97678.63;6206751;28;20024;-65
2022/08/28 09:03:22;;;;;;;;;;;;;;;56.51;4.64;97663.38;6218113;28;19925;-65
2022/08/28 09:06:44;;;;;;;;;;;;;;;54.41;5.52;97662.03;6215445;28;20390;-63
2022/08/28 09:09:52;;;;;;;;;;;;;;;53.34;6.22;97659.41;6219696;28;19925;-63
2022/08/28 09:12:59;;;;;;;;;;;;;;;52.89;6.07;97649.34;6220076;28;20023;-63
2022/08/28 09:16:03;;;;;;;;;;;;;;;50.31;7.27;97640.66;6216126;28;19989;-63
2022/08/28 09:19:10;;;;;;;;;;;;;;;47.39;8.73;97641.03;6218947;28;19926;-62
2022/08/28 09:22:11;;;;;;;;;;;;;;;48.25;8.02;97631.34;6220029;28;19931;-62
2022/08/28 09:25:32;;;;;;;;;;;;;;;49.93;7.31;97629.50;6219661;28;20425;-62
2022/08/28 09:28:36;;;;;;;;;;;;;;;50.73;7.15;97623.81;6220314;28;20316;-63
2022/08/28 09:31:39;;;;;;;;;;;;;;;51.15;6.99;97618.94;6219966;28;20007;-63
2022/08/28 09:34:57;;;;;;;;;;;;;;;51.82;6.77;97618.81;6201572;28;20068;-63
2022/08/28 09:38:16;;;;;;;;;;;;;;;52.57;6.59;97625.91;6195565;28;20388;-63
2022/08/28 09:44:55;;;;;;;;;;;;;;;51.21;6.81;97611.13;6224677;28;20402;-63
2022/08/28 09:47:58;;;;;;;;;;;;;;;49.07;7.77;97603.53;6233450;28;20311;-64
2022/08/28 09:51:04;;;;;;;;;;;;;;;48.01;8.09;97587.13;6223258;28;20047;-63
2022/08/28 09:54:17;;;;;;;;;;;;;;;48.20;8.00;97581.25;6223929;28;19932;-66
2022/08/28 09:57:18;;;;;;;;;;;;;;;48.18;8.02;97575.19;6218076;28;19925;-62
2022/08/28 10:00:22;;;;;;;;;;;;;;;47.19;8.71;97570.78;6223966;28;19925;-62
2022/08/28 10:03:46;;;;;;;;;;;;;;;45.98;9.25;97565.16;6213916;28;20036;-63
2022/08/28 10:06:47;;;;;;;;;;;;;;;44.89;10.02;97553.69;6209391;28;19925;-63
2022/08/28 10:10:16;;;;;;;;;;;;;;;44.63;10.25;97558.03;6221717;28;20319;-62
2022/08/28 10:13:38;;;;;;;;;;;;;;;45.10;9.91;97547.72;6217601;28;20434;-62
2022/08/28 10:16:58;;;;;;;;;;;;;;;44.92;10.13;97549.47;6218090;28;20075;-63
2022/08/28 10:20:00;;;;;;;;;;;;;;;44.73;10.16;97546.72;6214684;28;20286;-63
2022/08/28 10:23:04;;;;;;;;;;;;;;;45.37;10.13;97545.00;6217267;28;19930;-63
2022/08/28 10:26:11;;;;;;;;;;;;;;;45.10;10.08;97550.50;6215871;28;20000;-63
2022/08/28 10:29:15;;;;;;;;;;;;;;;44.75;10.47;97537.00;6219208;28;19930;-62
2022/08/28 10:32:31;;;;;;;;;;;;;;;44.48;10.74;97551.59;6216558;28;19925;-62
2022/08/28 10:35:54;;;;;;;;;;;;;;;42.85;11.45;97542.59;6219474;28;19926;-62
2022/08/28 10:39:20;;;;;;;;;;;;;;;41.24;12.86;97526.44;6220476;28;20362;-62
2022/08/28 10:42:44;;;;;;;;;;;;;;;40.75;12.97;97529.88;6210126;28;20485;-62
2022/08/28 10:45:46;;;;;;;;;;;;;;;39.99;13.68;97523.19;6214653;28;20020;-63
2022/08/28 10:48:51;;;;;;;;;;;;;;;40.50;13.30;97523.22;6216348;28;19932;-64
2022/08/28 10:51:54;;;;;;;;;;;;;;;41.16;12.88;97514.03;6219539;28;20019;-63
2022/08/28 10:55:03;;;;;;;;;;;;;;;42.82;11.84;97525.44;6211616;28;20327;-62
2022/08/28 10:58:06;;;;;;;;;;;;;;;44.11;10.87;97525.53;6219579;28;20394;-62
2022/08/28 11:01:18;;;;;;;;;;;;;;;44.73;10.84;97524.50;6218038;28;19925;-62
2022/08/28 11:04:23;;;;;;;;;;;;;;;45.28;10.67;97513.50;6218685;28;19936;-63
2022/08/28 11:07:29;;;;;;;;;;;;;;;45.63;10.20;97519.47;6223082;28;19926;-63
2022/08/28 11:10:35;;;;;;;;;;;;;;;45.00;10.75;97521.00;6221641;28;19933;-63
2022/08/28 11:13:42;;;;;;;;;;;;;;;44.68;10.88;97516.31;6212203;28;19925;-64
2022/08/28 11:16:45;;;;;;;;;;;;;;;44.64;10.77;97509.69;6209571;28;19925;-62
2022/08/28 11:20:07;;;;;;;;;;;;;;;43.71;11.15;97511.16;6220778;28;20341;-63
2022/08/28 11:23:14;;;;;;;;;;;;;;;42.63;12.22;97512.63;6220047;28;19932;-64
2022/08/28 11:26:23;;;;;;;;;;;;;;;42.11;11.92;97501.97;6220207;28;19933;-63
2022/08/28 11:29:44;;;;;;;;;;;;;;;41.88;12.34;97503.50;6221690;28;19926;-62
2022/08/28 11:32:46;;;;;;;;;;;;;;;41.74;12.32;97488.66;6213784;28;19976;-63
2022/08/28 11:35:50;;;;;;;;;;;;;;;41.89;12.06;97483.03;6221913;28;20291;-63
2022/08/28 11:38:52;;;;;;;;;;;;;;;42.28;12.04;97473.91;6221652;28;20075;-63
2022/08/28 11:42:09;;;;;;;;;;;;;;;42.87;12.18;97473.94;6221984;28;20095;-62
2022/08/28 11:45:20;;;;;;;;;;;;;;;42.11;12.62;97473.50;6221041;28;19925;-62
2022/08/28 11:48:24;;;;;;;;;;;;;;;40.44;13.61;97466.44;6221637;28;20300;-62
2022/08/28 11:51:44;;;;;;;;;;;;;;;39.18;14.66;97472.25;6197722;28;20049;-63
2022/08/28 11:54:50;;;;;;;;;;;;;;;38.88;14.59;97475.69;6196655;28;19926;-63
2022/08/28 11:57:59;;;;;;;;;;;;;;;38.27;15.06;97465.03;6206162;28;19937;-64
2022/08/28 12:01:06;;;;;;;;;;;;;;;38.12;15.68;97462.19;6216657;28;19965;-64
2022/08/28 12:04:16;;;;;;;;;;;;;;;38.28;15.09;97461.22;6221024;28;19932;-66
2022/08/28 12:07:20;;;;;;;;;;;;;;;37.78;16.07;97456.09;6219478;28;20027;-66
2022/08/28 12:10:21;;;;;;;;;;;;;;;37.84;16.08;97455.03;6220436;28;20023;-66
2022/08/28 12:13:42;;;;;;;;;;;;;;;37.81;15.82;97450.91;6220420;28;20027;-70
2022/08/28 12:16:59;;;;;;;;;;;;;;;37.69;16.03;97453.00;6217867;28;20419;-65
2022/08/28 12:20:04;;;;;;;;;;;;;;;37.78;16.18;97462.41;6204858;28;20019;-65
2022/08/28 12:23:25;;;;;;;;;;;;;;;37.52;15.81;97448.44;6211072;28;19926;-63
2022/08/28 12:26:36;;;;;;;;;;;;;;;37.49;16.16;97454.44;6217336;28;19925;-64
2022/08/28 12:29:45;;;;;;;;;;;;;;;37.69;15.72;97453.00;6220975;28;19937;-68
2022/08/28 12:33:01;;;;;;;;;;;;;;;37.44;15.52;97451.59;6223496;28;19925;-65
2022/08/28 12:36:04;;;;;;;;;;;;;;;37.45;16.19;97452.41;6244758;28;19925;-66
2022/08/28 12:39:14;;;;;;;;;;;;;;;37.26;15.96;97450.03;6220050;28;20003;-66
2022/08/28 12:42:19;;;;;;;;;;;;;;;36.77;16.25;97446.34;6215087;28;19925;-62
2022/08/28 12:45:47;;;;;;;;;;;;;;;36.71;16.20;97442.72;6212885;28;20088;-64
2022/08/28 12:48:50;;;;;;;;;;;;;;;36.71;16.82;97437.22;6211594;28;19925;-64
2022/08/28 12:52:05;;;;;;;;;;;;;;;36.19;17.26;97429.34;6214088;28;20007;-64
2022/08/28 12:55:09;;;;;;;;;;;;;;;35.63;17.69;97431.09;6218305;28;20297;-63
2022/08/28 12:58:31;;;;;;;;;;;;;;;35.64;17.53;97428.13;6204392;28;20666;-62
2022/08/28 13:01:40;;;;;;;;;;;;;;;35.80;17.47;97425.66;6216266;28;20296;-63
2022/08/28 13:04:44;;;;;;;;;;;;;;;35.90;17.47;97425.84;6218629;28;19926;-63
2022/08/28 13:07:48;;;;;;;;;;;;;;;35.85;17.27;97423.00;6220463;28;19972;-63
2022/08/28 13:10:52;;;;;;;;;;;;;;;35.78;17.60;97422.31;6220267;28;20090;-64
2022/08/28 13:13:56;;;;;;;;;;;;;;;35.59;17.69;97425.28;6219857;28;19933;-64
2022/08/28 13:16:59;;;;;;;;;;;;;;;35.41;18.01;97411.78;6201295;28;20091;-64
2022/08/28 13:20:02;;;;;;;;;;;;;;;35.22;18.06;97414.72;6221686;28;19925;-65
2022/08/28 13:23:06;;;;;;;;;;;;;;;34.91;18.29;97406.97;6220638;28;19933;-65
2022/08/28 13:26:09;;;;;;;;;;;;;;;34.58;18.26;97411.19;6223088;28;20045;-64
2022/08/28 13:29:18;;;;;;;;;;;;;;;34.13;18.83;97420.78;6222101;28;19925;-64
2022/08/28 13:32:23;;;;;;;;;;;;;;;33.80;19.10;97415.88;6217009;28;19930;-65
2022/08/28 13:35:24;;;;;;;;;;;;;;;33.58;18.70;97414.75;6219965;28;19944;-65
2022/08/28 13:38:27;;;;;;;;;;;;;;;33.11;19.29;97420.00;6219481;28;20387;-65
2022/08/28 13:41:31;;;;;;;;;;;;;;;32.81;19.66;97410.69;6217623;28;19925;-65
2022/08/28 13:44:40;;;;;;;;;;;;;;;32.55;19.65;97417.25;6223399;28;19929;-64
2022/08/28 13:47:44;;;;;;;;;;;;;;;32.34;19.86;97412.25;6219120;28;19930;-64
2022/08/28 13:50:47;;;;;;;;;;;;;;;32.13;20.63;97413.47;6217519;28;20007;-64
2022/08/28 13:53:53;;;;;;;;;;;;;;;31.92;20.65;97409.28;6238944;28;19925;-64
2022/08/28 13:56:54;;;;;;;;;;;;;;;31.65;21.64;97412.19;6224018;28;19932;-64
2022/08/28 13:59:56;;;;;;;;;;;;;;;31.21;21.58;97411.16;6245214;28;20029;-65
2022/08/28 14:06:22;;;;;;;;;;;;;;;30.68;22.68;97405.13;6208581;28;19932;-65
2022/08/28 14:09:26;;;;;;;;;;;;;;;30.60;22.92;97409.75;6222144;28;19925;-65
2022/08/28 14:12:30;;;;;;;;;;;;;;;30.53;23.13;97413.53;6222043;28;20383;-64
2022/08/28 14:15:32;;;;;;;;;;;;;;;30.39;23.58;97408.13;6223343;28;20529;-65
2022/08/28 14:18:33;;;;;;;;;;;;;;;30.26;23.68;97408.13;6223586;28;19925;-65
2022/08/28 14:21:36;;;;;;;;;;;;;;;30.15;23.71;97419.63;6218995;28;19929;-64
2022/08/28 14:24:42;;;;;;;;;;;;;;;29.95;23.82;97415.06;6214351;28;20291;-65
2022/08/28 14:27:45;;;;;;;;;;;;;;;29.80;24.03;97419.00;6211371;28;20303;-64
2022/08/28 14:30:48;;;;;;;;;;;;;;;29.64;23.90;97412.09;6211889;28;20159;-62
2022/08/28 14:33:55;;;;;;;;;;;;;;;29.41;24.16;97421.41;6220967;28;20011;-62
2022/08/28 14:36:56;;;;;;;;;;;;;;;29.23;25.12;97419.31;6221381;28;20016;-70
2022/08/28 14:40:00;;;;;;;;;;;;;;;28.98;25.56;97427.09;6217934;28;20314;-63
2022/08/28 14:43:02;;;;;;;;;;;;;;;28.74;26.09;97419.53;6220558;28;20028;-63
2022/08/28 14:46:03;;;;;;;;;;;;;;;28.50;26.65;97424.38;6222944;28;20023;-63
2022/08/28 14:49:06;;;;;;;;;;;;;;;28.29;27.80;97427.16;6219989;28;19925;-62
2022/08/28 14:52:13;;;;;;;;;;;;;;;28.03;28.62;97427.81;6214860;28;20303;-65
2022/08/28 14:55:15;;;;;;;;;;;;;;;27.82;29.69;97425.97;6220543;28;20024;-64
2022/08/28 14:58:17;;;;;;;;;;;;;;;27.66;30.72;97427.88;6221987;28;20394;-64
2022/08/28 15:01:25;;;;;;;;;;;;;;;27.80;31.75;97433.44;6222726;28;20377;-64
2022/08/28 15:04:36;;;;;;;;;;;;;;;27.68;30.49;97430.38;6221687;28;20020;-63
2022/08/28 15:07:40;;;;;;;;;;;;;;;27.57;30.31;97437.13;6222359;28;19925;-63
2022/08/28 15:10:42;;;;;;;;;;;;;;;27.26;30.52;97432.03;6222015;28;20012;-62
2022/08/28 15:13:44;;;;;;;;;;;;;;;27.13;30.77;97440.81;6211578;28;19929;-64
2022/08/28 15:16:49;;;;;;;;;;;;;;;26.86;30.78;97432.41;6198000;28;20044;-63
2022/08/28 15:19:53;;;;;;;;;;;;;;;26.73;30.37;97440.34;6197373;28;20276;-62
2022/08/28 15:22:54;;;;;;;;;;;;;;;26.60;30.41;97432.06;6197963;28;19933;-64
2022/08/28 15:25:58;;;;;;;;;;;;;;;26.58;29.75;97444.88;6210615;28;19932;-63
2022/08/28 15:29:02;;;;;;;;;;;;;;;26.30;30.24;97445.53;6221840;28;20318;-64
2022/08/28 15:32:04;;;;;;;;;;;;;;;26.08;30.06;97454.50;6220434;28;20019;-63
2022/08/28 15:35:08;;;;;;;;;;;;;;;25.89;30.33;97456.69;6218768;28;19988;-65
2022/08/28 15:38:11;;;;;;;;;;;;;;;25.73;31.11;97456.78;6216461;28;19926;-68
2022/08/28 15:41:24;;;;;;;;;;;;;;;25.59;30.77;97454.88;6219958;28;20395;-64
2022/08/28 15:44:28;;;;;;;;;;;;;;;25.46;31.28;97456.31;6218447;28;19926;-62
2022/08/28 15:47:29;;;;;;;;;;;;;;;25.42;31.67;97460.41;6212418;28;19925;-63
2022/08/28 15:50:31;;;;;;;;;;;;;;;25.57;31.04;97456.94;6219016;28;19926;-63
2022/08/28 15:53:34;;;;;;;;;;;;;;;25.54;30.93;97458.13;6217558;28;19929;-64
2022/08/28 15:56:35;;;;;;;;;;;;;;;25.52;30.48;97454.78;6217424;28;19925;-64
2022/08/28 15:59:36;;;;;;;;;;;;;;;25.46;30.34;97456.31;6218457;28;19926;-62
2022/08/28 16:02:37;;;;;;;;;;;;;;;25.46;29.69;97460.88;6216176;28;19925;-63
2022/08/28 16:05:39;;;;;;;;;;;;;;;25.39;29.73;97455.34;6211436;28;19957;-62
2022/08/28 16:08:45;;;;;;;;;;;;;;;25.26;29.94;97463.22;6216463;28;19930;-64
2022/08/28 16:11:49;;;;;;;;;;;;;;;25.25;30.02;97459.69;6218139;28;19926;-62
2022/08/28 16:14:51;;;;;;;;;;;;;;;25.13;29.91;97462.91;6217294;28;19929;-63
2022/08/28 16:17:52;;;;;;;;;;;;;;;25.14;30.26;97459.19;6217050;28;19929;-62